Latest Weather Observations for Renmark Airport

IDS60801

Issued at 5:01 pm CST Tuesday 26 May 2015 (issued every 30 minutes, with the page automatically refreshed every 10 minutes)

About weather observations | Map of weather stations | Latest weather observations for SA | Other Formats
Station Details ID: 024048 Name: RENMARK AERO Lat: -34.20 Lon: 140.68 Height: 31.5 m
Data from the previous 72 hours. | See also: Recent months at Renmark Airport
Date/Time
CST
Temp
°C
App
Temp
°C
Dew
Point
Rel
Hum
%
Delta-T
°C
Wind Press
QNH
hPa
Press
MSL
hPa
Rain
since 9 am
mm
Dir
 
Spd
km/h
Gust
km/h
Spd
kts
Gust
kts
26/05:00pm 18.6 16.9 8.3 51 5.3 NE 7 7 4 4 1022.0 1022.0 0.0
26/04:30pm 19.9 18.3 8.6 48 5.9 NNE 7 9 4 5 1022.0 1022.0 0.0
26/04:00pm 20.4 16.9 7.4 43 6.7 N 15 19 8 10 1022.0 1022.0 0.0
26/03:30pm 20.7 17.5 8.4 45 6.4 NNE 15 17 8 9 1021.9 1021.9 0.0
26/03:00pm 20.9 17.1 7.5 42 6.9 NNE 17 22 9 12 1021.9 1021.9 0.0
26/02:30pm 21.4 18.8 7.6 41 7.1 N 11 17 6 9 1022.2 1022.2 0.0
26/02:00pm 21.6 18.9 7.4 40 7.3 N 11 17 6 9 1022.6 1022.6 0.0
26/01:30pm 21.0 17.3 8.0 43 6.7 N 17 22 9 12 1023.1 1023.1 0.0
26/01:00pm 20.5 16.5 8.2 45 6.4 N 19 24 10 13 1023.6 1023.6 0.0
26/12:30pm 19.9 16.6 9.5 51 5.5 NNE 17 28 9 15 1023.9 1023.9 0.0
26/12:00pm 19.1 16.6 9.6 54 5.0 N 13 17 7 9 1024.6 1024.6 0.0
26/11:30am 18.3 15.9 9.9 58 4.4 NNE 13 19 7 10 1025.1 1025.1 0.0
26/11:00am 16.6 13.7 9.8 64 3.6 NNE 15 20 8 11 1025.7 1025.7 0.0
26/10:30am 15.8 13.7 9.7 67 3.2 NE 11 13 6 7 1026.1 1026.1 0.0
26/10:00am 15.1 12.9 9.5 69 2.9 NE 11 15 6 8 1026.6 1026.6 0.0
26/09:30am 14.8 13.7 9.8 72 2.6 NE 6 9 3 5 1026.8 1026.8 0.0
26/09:00am 13.7 12.4 9.2 74 2.3 E 6 7 3 4 1026.6 1026.6 0.0
26/08:30am 13.4 12.6 9.8 79 1.8 ENE 4 9 2 5 1026.6 1026.6 0.0
26/08:00am 13.0 11.2 9.6 80 1.7 NNW 9 11 5 6 1026.7 1026.7 0.0
26/07:30am 12.2 10.5 9.9 86 1.2 NE 9 30 5 16 1026.9 1026.9 0.0
26/07:00am 12.1 8.3 9.1 82 1.5 NE 19 24 10 13 1025.9 1025.9 0.0
26/06:30am 11.5 7.8 9.4 87 1.1 ENE 19 24 10 13 1026.5 1026.5 0.0
26/06:00am 10.6 9.2 9.5 93 0.5 NE 7 9 4 5 1026.3 1026.3 0.0
26/05:30am 10.7 8.9 9.3 91 0.7 NE 9 11 5 6 1026.2 1026.2 0.0
26/05:00am 10.7 10.3 9.9 95 0.4 NNE 2 9 1 5 1026.3 1026.3 0.0
26/04:30am 10.3 10.3 9.7 96 0.3 CALM 0 0 0 0 1026.4 1026.4 0.0
26/04:00am 10.1 9.9 8.9 92 0.6 CALM 0 0 0 0 1026.8 1026.8 0.0
26/03:30am 10.0 9.8 9.1 94 0.4 CALM 0 0 0 0 1026.8 1026.8 0.0
26/03:00am 9.9 9.5 8.3 90 0.8 CALM 0 0 0 0 1026.7 1026.7 0.0
26/02:30am 10.1 9.8 8.7 91 0.7 CALM 0 6 0 3 1026.7 1026.7 0.0
26/02:00am 10.5 8.5 8.6 88 0.9 E 9 11 5 6 1027.0 1027.0 0.0
26/01:30am 9.8 9.4 8.4 91 0.7 CALM 0 0 0 0 1027.1 1027.1 0.0
26/01:00am 9.7 9.3 8.3 91 0.7 CALM 0 0 0 0 1027.3 1027.3 0.0
26/12:30am 10.1 9.7 8.4 89 0.8 CALM 0 0 0 0 1027.5 1027.5 0.0
26/12:00am 10.4 10.1 8.7 89 0.8 CALM 0 0 0 0 1027.7 1027.7 0.0
 
Date/Time
CST
Temp
°C
App
Temp
°C
Dew
Point
Rel
Hum
%
Delta-T
°C
Wind Press
QNH
hPa
Press
MSL
hPa
Rain
since 9 am
mm
Dir
 
Spd
km/h
Gust
km/h
Spd
kts
Gust
kts
25/11:30pm 10.8 10.5 8.6 86 1.1 CALM 0 0 0 0 1027.9 1027.9 0.0
25/11:00pm 10.9 10.5 8.3 84 1.3 CALM 0 0 0 0 1028.2 1028.2 0.0
25/10:30pm 11.1 10.8 8.5 84 1.3 CALM 0 0 0 0 1027.8 1027.8 0.0
25/10:00pm 11.4 11.0 8.4 82 1.5 CALM 0 0 0 0 1028.0 1028.0 0.0
25/09:30pm 11.0 10.7 8.6 85 1.2 CALM 0 0 0 0 1028.0 1028.0 0.0
25/09:00pm 11.0 10.6 8.4 84 1.3 CALM 0 0 0 0 1027.8 1027.8 0.0
25/08:30pm 10.6 10.0 7.5 81 1.5 CALM 0 0 0 0 1027.7 1027.7 0.0
25/08:00pm 10.4 9.8 7.5 82 1.4 CALM 0 0 0 0 1027.8 1027.8 0.0
25/07:30pm 10.4 9.7 7.1 80 1.6 CALM 0 0 0 0 1027.8 1027.8 0.0
25/07:00pm 11.2 10.6 7.5 78 1.8 CALM 0 0 0 0 1028.0 1028.0 0.0
25/06:30pm 11.8 11.2 7.3 74 2.2 CALM 0 0 0 0 1027.9 1027.9 0.0
25/06:00pm 12.6 12.0 7.3 70 2.6 CALM 0 0 0 0 1027.5 1027.5 0.0
25/05:30pm 14.2 12.4 7.3 63 3.4 E 6 7 3 4 1027.1 1027.1 0.0
25/05:00pm 17.0 14.9 6.8 51 5.1 E 7 9 4 5 1026.9 1026.9 0.0
25/04:30pm 18.0 16.6 7.4 50 5.3 NE 4 7 2 4 1026.6 1026.6 0.0
25/04:00pm 18.5 16.4 6.7 46 5.9 N 7 11 4 6 1026.5 1026.5 0.0
25/03:30pm 18.8 15.9 6.6 45 6.1 NNE 11 17 6 9 1026.6 1026.6 0.0
25/03:00pm 18.7 15.9 6.9 46 5.9 NNE 11 17 6 9 1026.8 1026.8 0.0
25/02:30pm 18.9 16.0 6.7 45 6.1 NNE 11 17 6 9 1027.0 1027.0 0.0
25/02:00pm 19.4 16.7 7.5 46 6.1 NE 11 20 6 11 1026.7 1026.7 0.0
25/01:30pm 18.6 15.8 7.1 47 5.8 NE 11 17 6 9 1026.9 1026.9 0.0
25/01:00pm 18.4 16.3 6.6 46 5.9 NE 7 13 4 7 1026.9 1026.9 0.0
25/12:30pm 18.6 16.7 7.4 48 5.6 NE 7 15 4 8 1027.5 1027.5 0.0
25/12:00pm 18.0 14.9 7.1 49 5.4 NNE 13 17 7 9 1028.3 1028.3 0.0
25/11:30am 18.0 16.2 8.0 52 5.1 NNE 7 13 4 7 1029.1 1029.1 0.0
25/11:00am 16.5 14.4 6.6 52 4.9 NE 7 13 4 7 1029.6 1029.6 0.0
25/10:30am 15.2 12.6 6.2 55 4.3 NNE 9 13 5 7 1029.9 1029.9 0.0
25/10:00am 14.4 11.8 6.0 57 4.0 NE 9 11 5 6 1030.2 1030.2 0.0
25/09:30am 12.9 10.9 7.1 68 2.8 E 7 7 4 4 1030.4 1030.4 0.0
25/09:00am 11.2 9.6 7.9 80 1.6 E 6 7 3 4 1030.6 1030.6 0.0
25/08:30am 10.4 9.2 8.0 85 1.2 SE 4 7 2 4 1030.5 1030.5 0.0
25/08:00am 7.9 7.4 7.9 100 0.0 CALM 0 0 0 0 1030.3 1030.3 0.0
25/07:30am 7.2 6.6 7.2 100 0.0 CALM 0 0 0 0 1030.0 1030.0 0.0
25/07:00am 7.3 6.7 7.3 100 0.0 CALM 0 0 0 0 1029.7 1029.7 0.0
25/06:30am 6.4 5.6 6.4 100 0.0 CALM 0 0 0 0 1029.4 1029.4 0.0
25/06:00am 6.9 5.8 6.9 100 0.0 SW 2 6 1 3 1029.4 1029.4 0.0
25/05:30am 7.5 6.9 7.5 100 0.0 CALM 0 0 0 0 1029.1 1029.1 0.0
25/05:00am 7.6 7.0 7.6 100 0.0 CALM 0 0 0 0 1029.0 1029.0 0.0
25/04:30am 7.9 7.4 7.9 100 0.0 CALM 0 0 0 0 1029.0 1029.0 0.0
25/04:00am 8.3 7.8 8.0 98 0.1 CALM 0 0 0 0 1028.8 1028.8 0.0
25/03:30am 8.2 7.7 7.9 98 0.1 CALM 0 0 0 0 1028.7 1028.7 0.0
25/03:00am 8.6 8.2 8.2 97 0.2 CALM 0 0 0 0 1029.0 1029.0 0.0
25/02:30am 8.7 8.3 8.3 97 0.2 CALM 0 0 0 0 1029.1 1029.1 0.0
25/02:00am 8.9 8.6 8.5 97 0.2 CALM 0 0 0 0 1028.9 1028.9 0.0
25/01:30am 9.2 8.4 8.0 92 0.6 ENE 2 6 1 3 1028.8 1028.8 0.0
25/01:00am 9.4 9.0 8.2 92 0.6 CALM 0 0 0 0 1028.8 1028.8 0.0
25/12:30am 9.4 8.9 7.8 90 0.8 CALM 0 0 0 0 1028.9 1028.9 0.0
25/12:00am 10.3 8.1 7.9 85 1.2 E 9 9 5 5 1028.9 1028.9 0.0
 
Date/Time
CST
Temp
°C
App
Temp
°C
Dew
Point
Rel
Hum
%
Delta-T
°C
Wind Press
QNH
hPa
Press
MSL
hPa
Rain
since 9 am
mm
Dir
 
Spd
km/h
Gust
km/h
Spd
kts
Gust
kts
24/11:30pm 9.2 7.4 7.8 91 0.7 E 7 7 4 4 1029.0 1029.0 0.0
24/11:00pm 9.3 7.9 7.4 88 0.9 ESE 4 7 2 4 1029.2 1029.2 0.0
24/10:30pm 10.4 9.0 7.3 81 1.5 ESE 4 6 2 3 1029.2 1029.2 0.0
24/10:00pm 11.0 9.1 7.5 79 1.7 ESE 7 9 4 5 1029.3 1029.3 0.0
24/09:30pm 10.5 10.0 7.7 83 1.3 CALM 0 0 0 0 1029.4 1029.4 0.0
24/09:00pm 11.1 8.5 7.6 79 1.7 SE 11 15 6 8 1028.9 1028.9 0.0
24/08:30pm 10.9 9.1 8.0 82 1.4 S 7 7 4 4 1029.6 1029.6 0.0
24/08:00pm 11.4 10.7 7.1 75 2.1 CALM 0 0 0 0 1029.3 1029.3 0.0
24/07:30pm 12.3 10.5 7.0 70 2.5 NE 6 7 3 4 1029.5 1029.5 0.0
24/07:00pm 12.2 10.4 7.1 71 2.5 SE 6 9 3 5 1029.1 1029.1 0.0
24/06:30pm 11.5 9.8 7.6 77 1.9 SSE 6 7 3 4 1029.0 1029.0 0.0
24/06:00pm 12.5 11.8 7.0 69 2.6 CALM 0 0 0 0 1029.2 1029.2 0.0
24/05:30pm 12.7 10.6 6.7 67 2.9 WSW 7 9 4 5 1029.2 1029.2 0.0
24/05:00pm 13.8 12.3 6.7 62 3.4 NE 4 9 2 5 1028.8 1028.8 0.0
24/04:30pm 14.3 11.4 6.4 59 3.8 NE 11 13 6 7 1028.7 1028.7 0.0
24/04:00pm 16.5 14.0 4.9 46 5.5 NNW 7 9 4 5 1028.6 1028.6 0.0
24/03:30pm 17.3 14.8 4.9 44 5.9 WNW 7 13 4 7 1028.5 1028.5 0.0
24/03:00pm 16.8 14.5 4.8 45 5.7 NE 6 9 3 5 1028.2 1028.2 0.0
24/02:30pm 16.5 13.4 5.5 48 5.3 NE 11 17 6 9 1028.4 1028.4 0.0
24/02:00pm 15.9 13.1 5.2 49 5.1 NNE 9 13 5 7 1028.6 1028.6 0.0
24/01:30pm 16.0 13.0 5.9 51 4.8 N 11 20 6 11 1028.8 1028.8 0.0
24/01:00pm 15.6 12.0 5.2 50 4.9 NNE 13 17 7 9 1028.9 1028.9 0.0
24/12:30pm 16.0 12.4 5.0 48 5.2 N 13 17 7 9 1029.3 1029.3 0.0
24/12:00pm 16.3 13.5 5.3 48 5.2 N 9 15 5 8 1029.4 1029.4 0.0
24/11:30am 15.0 12.7 5.8 54 4.4 NE 7 11 4 6 1029.8 1029.8 0.0
24/11:00am 12.8 10.8 6.4 65 3.0 ENE 6 9 3 5 1030.2 1030.2 0.0
24/10:30am 11.0 9.0 6.4 73 2.1 ENE 6 11 3 6 1030.6 1030.6 0.0
24/10:00am 9.6 8.5 6.7 82 1.4 NE 2 6 1 3 1030.7 1030.7 0.0
24/09:30am 7.7 5.8 6.8 94 0.4 NE 6 11 3 6 1030.5 1030.5 0.0
24/09:00am 7.2 5.3 6.9 98 0.1 NE 6 7 3 4 1030.4 1030.4 0.0
24/08:30am 5.2 4.1 5.2 100 0.0 CALM 0 0 0 0 1030.5 1030.5 0.0
24/08:00am 2.3 0.7 2.2 99 0.0 CALM 0 0 0 0 1030.4 1030.4 0.0
24/07:30am 1.4 -1.7 1.3 99 0.0 W 7 9 4 5 1030.4 1030.4 0.0
24/07:00am 1.4 -1.1 1.3 99 0.0 WSW 4 7 2 4 1029.9 1029.9 0.0
24/06:30am 1.1 -1.9 1.0 99 0.0 W 6 7 3 4 1030.1 1030.1 0.0
24/06:00am 0.2 -3.1 0.1 99 0.0 WSW 7 9 4 5 1029.8 1029.8 0.0
24/05:30am -0.1 -2.1 -0.2 99 0.0 CALM 0 0 0 0 1029.4 1029.4 0.0
24/05:00am -0.6 -2.7 -0.7 99 0.0 CALM 0 7 0 4 1029.4 1029.4 0.0
24/04:30am -0.2 -2.2 -0.3 99 0.0 CALM 0 0 0 0 1029.5 1029.5 0.0
24/04:00am -0.5 -2.6 -0.6 99 0.0 CALM 0 0 0 0 1029.3 1029.3 0.0
24/03:30am -0.2 -2.2 -0.3 99 0.0 CALM 0 0 0 0 1029.1 1029.1 0.0
24/03:00am -0.1 -2.1 -0.2 99 0.0 CALM 0 0 0 0 1029.1 1029.1 0.0
24/02:30am 0.9 -1.0 0.8 99 0.0 CALM 0 0 0 0 1029.2 1029.2 0.0
24/02:00am 0.6 -1.3 0.5 99 0.0 CALM 0 0 0 0 1029.4 1029.4 0.0
24/01:30am 1.3 -0.5 1.2 99 0.0 CALM 0 0 0 0 1029.4 1029.4 0.0
24/01:00am 2.4 0.4 2.3 99 0.0 SE 2 6 1 3 1029.2 1029.2 0.0
24/12:30am 1.8 -1.1 1.7 99 0.0 WSW 6 7 3 4 1029.4 1029.4 0.0
24/12:00am 2.9 1.4 2.8 99 0.0 CALM 0 0 0 0 1029.5 1029.5 0.0
 
Date/Time
CST
Temp
°C
App
Temp
°C
Dew
Point
Rel
Hum
%
Delta-T
°C
Wind Press
QNH
hPa
Press
MSL
hPa
Rain
since 9 am
mm
Dir
 
Spd
km/h
Gust
km/h
Spd
kts
Gust
kts
23/11:30pm 3.5 2.1 3.4 99 0.0 CALM 0 0 0 0 1029.9 1029.9 0.0
23/11:00pm 3.8 2.4 3.7 99 0.0 CALM 0 0 0 0 1029.8 1029.8 0.0
23/10:30pm 4.2 2.9 4.1 99 0.0 CALM 0 0 0 0 1029.7 1029.7 0.0
23/10:00pm 4.6 3.3 4.3 98 0.1 CALM 0 0 0 0 1029.9 1029.9 0.0
23/09:30pm 4.7 3.1 4.4 98 0.1 SW 2 6 1 3 1030.1 1030.1 0.0
23/09:00pm 4.9 3.6 4.3 96 0.3 CALM 0 0 0 0 1030.1 1030.1 0.0
23/08:30pm 5.0 3.7 4.0 93 0.4 CALM 0 0 0 0 1030.2 1030.2 0.0
23/08:00pm 5.5 3.1 4.2 91 0.6 W 6 7 3 4 1030.2 1030.2 0.0
23/07:30pm 5.7 4.4 4.3 91 0.6 CALM 0 7 0 4 1030.1 1030.1 0.0
23/07:00pm 6.8 5.6 4.6 86 1.0 CALM 0 0 0 0 1029.9 1029.9 0.0
23/06:30pm 7.9 5.6 5.0 82 1.3 S 6 7 3 4 1029.8 1029.8 0.0
23/06:00pm 8.8 7.0 5.4 79 1.5 SW 4 6 2 3 1030.0 1030.0 0.0
23/05:30pm 10.9 8.8 5.9 71 2.3 S 6 7 3 4 1029.9 1029.9 0.0

Other Formats:

Comma delimited format used in spreadsheet applications
http://www.bom.gov.au/fwo/IDS60801/IDS60801.95687.axf

JavaScript Object Notation format (JSON) in row-major order
http://www.bom.gov.au/fwo/IDS60801/IDS60801.95687.json